Time;durP1;ratioP1;P1;durP2;ratioP2;P2;SDS_P1;SDS_P2;PMS_P1;PMS_P2;Temp;Humidity;BMP_temperature;BMP_pressure;BME280_temperature;BME280_humidity;BME280_pressure;Samples;Min_cycle;Max_cycle;Signal;HPM_P1;HPM_P2
2021/12/07 00:21:08;;;;;;;353.73;245.55;;;;;;;22.09;47.86;100315.81;10169036;27;10002135;-58
2021/12/07 01:31:53;;;;;;;33.90;17.50;;;;;;;0.95;100.00;100491.00;10509959;27;20588;-67
2021/12/07 01:49:51;;;;;;;;;;;;;;;;;;;;;
2021/12/07 02:16:30;;;;;;;33.50;15.33;;;;;;;-1.16;100.00;100492.19;10737690;23;20301;-65
2021/12/07 02:21:35;;;;;;;35.63;15.83;;;;;;;-1.16;100.00;100517.66;10370678;28;20226;-67
2021/12/07 02:26:38;;;;;;;37.00;16.13;;;;;;;-1.12;100.00;100512.69;10370481;28;20223;-67
2021/12/07 02:31:42;;;;;;;39.23;17.60;;;;;;;-1.07;100.00;100509.50;10369993;28;20218;-68
2021/12/07 02:36:47;;;;;;;43.97;18.33;;;;;;;-1.11;100.00;100500.03;10026857;28;10000465;-68
2021/12/07 02:41:50;;;;;;;41.87;18.00;;;;;;;-1.35;100.00;100509.25;10386629;28;20384;-67
2021/12/07 02:46:54;;;;;;;40.00;17.33;;;;;;;-1.23;100.00;100514.84;10379986;28;20222;-67
2021/12/07 02:51:59;;;;;;;36.07;16.97;;;;;;;-1.17;100.00;100504.03;10379422;28;20230;-68
2021/12/07 02:57:05;;;;;;;38.17;16.90;;;;;;;-1.17;100.00;100504.88;10380062;28;20214;-67
2021/12/07 03:02:10;;;;;;;39.67;17.43;;;;;;;-1.14;100.00;100510.09;10379578;28;20699;-66
2021/12/07 03:07:23;;;;;;;39.43;16.90;;;;;;;-1.23;100.00;100502.97;10378900;28;20214;-67
2021/12/07 03:28:43;;;;;;;39.90;17.13;;;;;;;-1.43;100.00;100506.41;10354910;28;20216;-67
2021/12/07 03:33:47;;;;;;;42.97;17.73;;;;;;;-1.40;100.00;100509.06;10380762;28;20193;-65
2021/12/07 03:38:52;;;;;;;43.80;16.37;;;;;;;-1.42;100.00;100503.06;10380860;28;20232;-67
2021/12/07 03:43:55;;;;;;;44.07;16.03;;;;;;;-1.46;100.00;100500.31;10381322;28;20202;-68
2021/12/07 03:48:59;;;;;;;39.10;16.43;;;;;;;-1.40;100.00;100501.44;10380468;28;20209;-67
2021/12/07 03:54:04;;;;;;;42.37;16.93;;;;;;;-1.43;100.00;100510.63;10379774;28;20193;-67
2021/12/07 03:59:07;;;;;;;39.10;15.87;;;;;;;-1.50;100.00;100519.69;10381833;28;20217;-64
2021/12/07 04:04:10;;;;;;;42.50;16.77;;;;;;;-1.45;100.00;100518.19;10380054;28;20224;-67
2021/12/07 04:09:16;;;;;;;36.80;15.93;;;;;;;-1.40;100.00;100526.88;10379547;28;20226;-64
2021/12/07 04:14:19;;;;;;;37.00;15.87;;;;;;;-1.42;100.00;100535.28;10379870;28;20230;-65
2021/12/07 04:19:23;;;;;;;38.43;15.83;;;;;;;-1.55;100.00;100538.13;10380137;28;20218;-68
2021/12/07 04:24:28;;;;;;;63.30;24.50;;;;;;;-1.50;100.00;100550.22;10379565;28;20321;-69
2021/12/07 04:29:31;;;;;;;40.47;16.63;;;;;;;-1.43;100.00;100559.84;10378870;28;20209;-67
2021/12/07 04:34:35;;;;;;;39.00;15.70;;;;;;;-1.32;100.00;100553.53;10378745;28;20190;-68
2021/12/07 04:39:39;;;;;;;39.77;16.07;;;;;;;-1.38;100.00;100539.69;10378721;28;20222;-67
2021/12/07 04:44:50;;;;;;;38.83;16.37;;;;;;;-1.33;100.00;100543.28;10378368;28;20544;-67
2021/12/07 04:50:19;;;;;;;39.57;16.47;;;;;;;-1.33;100.00;100539.03;10378365;28;20654;-71
2021/12/07 05:01:00;;;;;;;40.63;16.20;;;;;;;-1.51;100.00;100570.53;10293584;28;20238;-68
2021/12/07 05:06:06;;;;;;;40.90;16.20;;;;;;;-1.43;100.00;100574.22;10358074;28;20252;-64
2021/12/07 05:11:32;;;;;;;37.23;15.23;;;;;;;-1.39;100.00;100573.56;10377772;28;20222;-70
2021/12/07 05:16:48;;;;;;;36.00;15.53;;;;;;;-1.48;100.00;100573.19;10377447;28;20671;-63
2021/12/07 05:37:57;;;;;;;39.03;16.80;;;;;;;-1.35;100.00;100596.63;10377103;28;20220;-64
2021/12/07 05:43:03;;;;;;;36.17;16.30;;;;;;;-1.46;100.00;100592.81;10376978;28;20222;-66
2021/12/07 05:48:07;;;;;;;35.10;16.53;;;;;;;-1.50;100.00;100596.03;10377045;28;20222;-64
2021/12/07 05:53:12;;;;;;;44.57;16.10;;;;;;;-1.42;100.00;100594.69;10377530;28;20513;-65
2021/12/07 05:58:19;;;;;;;49.10;16.77;;;;;;;-1.42;100.00;100584.50;10377313;28;20685;-64
2021/12/07 06:03:22;;;;;;;39.73;16.33;;;;;;;-1.33;100.00;100584.00;10376369;28;20270;-68
2021/12/07 06:08:25;;;;;;;40.87;16.37;;;;;;;-1.40;100.00;100590.50;10376629;28;20233;-67
2021/12/07 06:13:30;;;;;;;37.20;14.83;;;;;;;-1.36;100.00;100588.94;10376807;28;20218;-63
2021/12/07 06:18:35;;;;;;;36.23;15.33;;;;;;;-1.38;100.00;100598.22;10302841;28;20315;-64
2021/12/07 06:23:39;;;;;;;35.83;13.47;;;;;;;-1.42;100.00;100587.03;10302420;28;20277;-66
2021/12/07 06:28:44;;;;;;;37.80;16.00;;;;;;;-1.40;100.00;100589.66;10303725;28;20227;-69
2021/12/07 06:33:47;;;;;;;33.67;13.97;;;;;;;-1.42;100.00;100597.22;10302606;28;20220;-65
2021/12/07 06:38:52;;;;;;;30.30;12.63;;;;;;;-1.27;100.00;100604.59;10301973;28;20231;-67
2021/12/07 06:43:56;;;;;;;26.17;10.90;;;;;;;-1.45;100.00;100609.81;10302062;28;20215;-67
2021/12/07 06:48:59;;;;;;;26.00;11.40;;;;;;;-1.39;100.00;100614.28;10301917;28;20220;-63
2021/12/07 06:54:03;;;;;;;21.93;10.43;;;;;;;-1.37;100.00;100620.31;10301459;28;20552;-68
2021/12/07 06:59:07;;;;;;;20.20;9.70;;;;;;;-1.35;100.00;100617.00;10301128;28;20556;-66
2021/12/07 07:04:12;;;;;;;21.07;9.63;;;;;;;-1.54;100.00;100613.66;10300809;28;20251;-67
2021/12/07 07:09:17;;;;;;;19.47;9.10;;;;;;;-1.55;100.00;100622.97;10301207;28;20677;-65
2021/12/07 07:14:21;;;;;;;23.50;9.37;;;;;;;-1.43;100.00;100612.41;10313510;28;20234;-65
2021/12/07 07:19:25;;;;;;;27.60;10.97;;;;;;;-1.49;100.00;100627.44;10381318;28;20533;-64
2021/12/07 07:24:28;;;;;;;23.17;10.07;;;;;;;-1.53;100.00;100631.53;10377773;28;20633;-67
2021/12/07 07:29:33;;;;;;;24.33;9.83;;;;;;;-1.55;100.00;100633.13;10000323;28;10000232;-65
2021/12/07 07:34:36;;;;;;;21.47;10.03;;;;;;;-1.45;100.00;100635.25;10337863;28;20593;-65
2021/12/07 07:39:41;;;;;;;24.63;10.17;;;;;;;-1.59;100.00;100643.97;10338605;28;20675;-66
2021/12/07 07:44:45;;;;;;;20.30;9.77;;;;;;;-1.42;100.00;100649.78;10337408;28;20227;-65
2021/12/07 07:49:49;;;;;;;25.50;10.33;;;;;;;-1.39;100.00;100644.81;10339071;28;20250;-66
2021/12/07 07:54:52;;;;;;;24.17;10.50;;;;;;;-1.34;100.00;100648.44;10337907;28;20522;-66
2021/12/07 07:59:57;;;;;;;25.03;11.33;;;;;;;-1.39;100.00;100650.78;10339391;28;20253;-67
2021/12/07 08:05:00;;;;;;;29.83;10.83;;;;;;;-1.48;100.00;100652.94;10338966;28;20229;-68
2021/12/07 08:10:05;;;;;;;24.17;11.87;;;;;;;-1.34;100.00;100654.41;10337883;28;20675;-67
2021/12/07 08:15:11;;;;;;;27.90;10.53;;;;;;;-1.27;100.00;100658.06;10336667;28;20239;-67
2021/12/07 08:20:14;;;;;;;39.70;11.73;;;;;;;-1.24;100.00;100668.34;10337748;28;20660;-66
2021/12/07 08:25:18;;;;;;;24.67;10.70;;;;;;;-1.36;100.00;100663.63;10336497;28;20225;-66
2021/12/07 08:30:23;;;;;;;44.80;19.50;;;;;;;-1.30;100.00;100675.75;10377335;28;20836;-67
2021/12/07 08:35:26;;;;;;;27.37;10.30;;;;;;;-1.23;100.00;100677.75;10416139;28;20221;-66
2021/12/07 08:40:39;;;;;;;22.07;10.27;;;;;;;-1.32;100.00;100682.44;10415515;28;20258;-67
2021/12/07 08:45:43;;;;;;;22.17;9.50;;;;;;;-1.35;100.00;100688.28;10415917;28;20295;-66
2021/12/07 08:50:47;;;;;;;24.70;9.37;;;;;;;-1.32;100.00;100690.97;10415693;28;20199;-66
2021/12/07 09:01:17;;;;;;;19.23;9.43;;;;;;;-1.07;100.00;100694.53;10364335;28;20261;-73
2021/12/07 09:06:21;;;;;;;23.30;9.07;;;;;;;-1.09;100.00;100696.13;10334505;28;20545;-69
2021/12/07 09:11:30;;;;;;;18.10;8.73;;;;;;;-1.08;100.00;100698.75;10386863;28;20723;-64
2021/12/07 09:16:34;;;;;;;19.50;8.70;;;;;;;-1.07;100.00;100704.72;10416700;28;20678;-66
2021/12/07 09:21:38;;;;;;;21.20;8.27;;;;;;;-1.05;100.00;100709.06;10365216;28;20288;-63
2021/12/07 09:26:42;;;;;;;20.90;8.43;;;;;;;-1.03;100.00;100706.56;10334855;28;20659;-67
2021/12/07 09:31:47;;;;;;;18.77;8.60;;;;;;;-0.94;100.00;100697.63;10334237;28;20657;-68
2021/12/07 09:36:50;;;;;;;19.00;8.63;;;;;;;-0.87;100.00;100698.75;10333863;28;20226;-64
2021/12/07 09:41:55;;;;;;;19.37;9.60;;;;;;;-0.99;100.00;100694.03;10382406;28;20670;-69
2021/12/07 09:47:00;;;;;;;17.23;8.10;;;;;;;-0.81;100.00;100686.28;10416549;28;20276;-70
2021/12/07 09:52:04;;;;;;;17.50;7.50;;;;;;;-0.79;100.00;100685.50;10421499;28;20300;-65
2021/12/07 09:57:07;;;;;;;13.77;6.70;;;;;;;-0.97;100.00;100677.16;10422955;28;20635;-65
2021/12/07 10:02:12;;;;;;;16.50;7.57;;;;;;;-0.99;100.00;100680.44;10370917;28;20276;-67
2021/12/07 10:07:16;;;;;;;18.53;7.50;;;;;;;-0.83;100.00;100680.25;10341166;28;20218;-65
2021/12/07 10:12:22;;;;;;;20.17;9.27;;;;;;;-0.87;100.00;100673.28;10389975;28;20206;-69
2021/12/07 10:17:26;;;;;;;15.03;7.03;;;;;;;-0.80;100.00;100680.34;10421671;28;20229;-66
2021/12/07 10:22:35;;;;;;;17.13;6.93;;;;;;;-0.80;100.00;100678.69;10421370;28;20547;-67
2021/12/07 10:27:42;;;;;;;13.80;6.97;;;;;;;-0.89;100.00;100668.13;10413981;28;20635;-66
2021/12/07 10:32:59;;;;;;;15.83;7.20;;;;;;;-0.75;100.00;100659.34;10383141;28;20699;-66
2021/12/07 10:38:11;;;;;;;18.40;7.47;;;;;;;-0.78;100.00;100659.25;10383095;28;20196;-63
2021/12/07 10:43:14;;;;;;;18.90;7.87;;;;;;;-0.50;100.00;100659.50;10383025;28;20224;-64
2021/12/07 10:48:25;;;;;;;19.73;8.60;;;;;;;-0.60;100.00;100659.06;10383315;28;20225;-66
2021/12/07 10:53:35;;;;;;;21.17;10.13;;;;;;;-0.48;100.00;100662.97;10022627;28;10000575;-67
2021/12/07 10:58:39;;;;;;;22.00;9.60;;;;;;;-0.37;100.00;100671.03;10341449;28;20226;-68
2021/12/07 11:03:43;;;;;;;21.00;8.83;;;;;;;-0.45;100.00;100663.06;10340211;28;20207;-66
2021/12/07 11:08:57;;;;;;;20.07;10.07;;;;;;;-0.39;100.00;100655.69;10340197;28;20525;-66
2021/12/07 11:14:05;;;;;;;18.57;9.77;;;;;;;-0.43;100.00;100653.81;10401851;28;20233;-66
2021/12/07 11:19:22;;;;;;;20.80;9.57;;;;;;;-0.32;100.00;100657.66;10421393;28;20202;-65
2021/12/07 11:24:35;;;;;;;18.30;8.97;;;;;;;-0.26;100.00;100655.31;10371115;23;20248;-67
2021/12/07 11:29:43;;;;;;;21.80;9.87;;;;;;;-0.20;100.00;100647.91;10350533;28;20214;-69
2021/12/07 11:34:48;;;;;;;22.83;10.83;;;;;;;-0.32;100.00;100662.75;10336259;28;20191;-67
2021/12/07 11:39:56;;;;;;;25.43;12.23;;;;;;;-0.46;100.00;100673.22;10339748;28;20203;-70
2021/12/07 11:45:03;;;;;;;23.17;12.20;;;;;;;-0.37;100.00;100674.47;10340007;28;20229;-72
2021/12/07 11:50:37;;;;;;;24.97;11.73;;;;;;;-0.53;100.00;100676.34;10339599;28;20207;-66
2021/12/07 11:55:47;;;;;;;24.80;11.47;;;;;;;-0.46;100.00;100680.88;10338875;28;20241;-66
2021/12/07 12:00:52;;;;;;;19.67;10.30;;;;;;;-0.47;100.00;100690.22;10339157;28;20226;-67
2021/12/07 12:05:57;;;;;;;22.53;11.33;;;;;;;-0.58;100.00;100688.91;10379774;28;20226;-69
2021/12/07 12:11:15;;;;;;;21.47;10.00;;;;;;;-0.58;100.00;100694.00;10379082;28;20302;-68
2021/12/07 12:16:25;;;;;;;28.37;12.90;;;;;;;-0.67;100.00;100693.63;10378945;28;20228;-65
2021/12/07 12:21:35;;;;;;;25.10;12.17;;;;;;;-0.52;100.00;100706.13;10378535;28;20238;-70
2021/12/07 12:26:39;;;;;;;27.57;12.77;;;;;;;-0.46;100.00;100704.69;10378535;28;20237;-68
2021/12/07 12:31:46;;;;;;;27.13;13.27;;;;;;;-0.47;100.00;100708.06;10377936;28;20316;-67
2021/12/07 12:37:16;;;;;;;27.13;12.27;;;;;;;-0.47;100.00;100705.50;10378321;28;20225;-67
2021/12/07 12:42:27;;;;;;;23.40;11.40;;;;;;;-0.64;100.00;100714.13;10375066;28;20245;-68
2021/12/07 12:47:32;;;;;;;25.57;12.03;;;;;;;-0.70;100.00;100707.94;10378030;28;20218;-69
2021/12/07 12:52:43;;;;;;;29.47;14.10;;;;;;;-0.51;100.00;100703.63;10377287;28;20233;-71
2021/12/07 12:57:50;;;;;;;25.87;12.30;;;;;;;-0.68;100.00;100712.31;10377938;28;20241;-68
2021/12/07 13:02:55;;;;;;;24.83;10.33;;;;;;;-0.62;100.00;100717.63;10377335;28;20244;-66
2021/12/07 13:08:14;;;;;;;20.07;8.30;;;;;;;-0.65;100.00;100714.97;10377443;28;20222;-66
2021/12/07 13:13:26;;;;;;;20.40;9.10;;;;;;;-0.80;100.00;100722.00;10377062;28;20228;-68
2021/12/07 13:18:32;;;;;;;19.77;8.93;;;;;;;-0.84;100.00;100722.66;10377220;28;20260;-69
2021/12/07 13:23:37;;;;;;;16.07;7.47;;;;;;;-0.72;100.00;100727.38;10376347;28;20312;-67
2021/12/07 13:28:41;;;;;;;15.37;7.50;;;;;;;-0.81;100.00;100727.03;10377035;28;20214;-67
2021/12/07 13:33:49;;;;;;;19.87;7.87;;;;;;;-0.90;100.00;100735.19;10376631;28;20273;-67
2021/12/07 13:38:54;;;;;;;18.07;7.57;;;;;;;-0.79;100.00;100735.59;10374042;28;20238;-68
2021/12/07 13:43:58;;;;;;;14.07;7.00;;;;;;;-0.78;100.00;100733.13;10026175;28;10000051;-68
2021/12/07 13:49:07;;;;;;;16.47;7.80;;;;;;;-0.89;100.00;100741.13;10372557;28;20228;-68
2021/12/07 13:54:18;;;;;;;16.93;7.17;;;;;;;-0.95;100.00;100736.66;10360047;28;20222;-69
2021/12/07 13:59:23;;;;;;;16.27;7.17;;;;;;;-0.92;100.00;100746.97;10331653;28;20227;-68
2021/12/07 14:04:28;;;;;;;14.77;7.17;;;;;;;-0.98;100.00;100748.41;10331265;28;20230;-69
2021/12/07 14:09:32;;;;;;;13.63;6.80;;;;;;;-1.14;100.00;100749.44;10331011;28;20682;-68
2021/12/07 14:14:36;;;;;;;26.43;9.53;;;;;;;-1.08;100.00;100759.84;10330854;28;20373;-69
2021/12/07 14:19:39;;;;;;;13.10;5.93;;;;;;;-1.21;100.00;100758.47;10330725;28;20237;-68
2021/12/07 14:24:44;;;;;;;12.83;6.63;;;;;;;-1.14;100.00;100757.06;10330342;28;20252;-69
2021/12/07 14:29:47;;;;;;;15.37;6.20;;;;;;;-1.17;100.00;100763.72;10330486;28;20561;-69
2021/12/07 14:34:51;;;;;;;13.17;6.97;;;;;;;-1.06;100.00;100765.00;10330649;28;20249;-67
2021/12/07 14:39:56;;;;;;;14.80;7.47;;;;;;;-1.09;100.00;100775.06;10337899;28;20221;-67
2021/12/07 14:45:00;;;;;;;14.10;6.93;;;;;;;-1.21;100.00;100777.97;10345252;28;20333;-67
2021/12/07 14:50:03;;;;;;;13.60;7.17;;;;;;;-1.22;100.00;100778.75;10337683;28;20665;-67
2021/12/07 14:55:10;;;;;;;14.47;6.57;;;;;;;-1.29;100.00;100775.09;10337493;28;20369;-68
2021/12/07 15:00:16;;;;;;;10.67;5.47;;;;;;;-1.24;100.00;100765.97;10337737;28;20241;-68
2021/12/07 15:05:19;;;;;;;11.90;5.97;;;;;;;-1.30;100.00;100769.94;10337159;28;20228;-67
2021/12/07 15:10:24;;;;;;;13.33;6.43;;;;;;;-1.35;100.00;100761.22;10336481;28;20218;-68
2021/12/07 15:15:27;;;;;;;110.63;46.93;;;;;;;-1.28;100.00;100770.88;10336921;28;20235;-69
2021/12/07 15:20:30;;;;;;;10.13;5.03;;;;;;;-1.25;100.00;100776.09;10336489;28;20229;-67
2021/12/07 15:25:35;;;;;;;12.00;4.53;;;;;;;-1.48;100.00;100762.38;10335879;28;20718;-67
2021/12/07 15:30:39;;;;;;;12.43;5.03;;;;;;;-1.46;100.00;100768.41;10370402;28;20194;-68
2021/12/07 15:35:44;;;;;;;9.47;4.40;;;;;;;-1.45;100.00;100767.59;10371451;28;20214;-68
2021/12/07 15:40:49;;;;;;;8.30;3.40;;;;;;;-1.54;100.00;100764.66;10360722;28;20200;-67
2021/12/07 15:45:52;;;;;;;8.53;3.87;;;;;;;-1.40;100.00;100767.81;10365893;28;20302;-67
2021/12/07 15:51:01;;;;;;;10.80;5.13;;;;;;;-1.49;100.00;100778.44;10363527;28;20751;-68
2021/12/07 15:56:07;;;;;;;11.03;5.07;;;;;;;-1.54;100.00;100776.50;10358883;28;20205;-67
2021/12/07 16:01:10;;;;;;;9.43;4.80;;;;;;;-1.58;100.00;100775.50;10357559;28;20253;-67
2021/12/07 16:06:20;;;;;;;9.50;4.63;;;;;;;-1.48;100.00;100777.63;10355686;28;20190;-68
2021/12/07 16:11:26;;;;;;;10.83;5.30;;;;;;;-1.70;100.00;100781.69;10355129;28;20222;-67
2021/12/07 16:16:31;;;;;;;14.88;7.47;;;;;;;-1.60;100.00;100791.47;10363338;28;20446;-68
2021/12/07 16:21:34;;;;;;;12.10;6.07;;;;;;;-1.70;100.00;100794.41;10338055;28;20218;-67
2021/12/07 16:26:39;;;;;;;13.70;5.70;;;;;;;-1.61;100.00;100792.28;10333773;28;20704;-67
2021/12/07 16:31:43;;;;;;;11.37;6.47;;;;;;;-1.62;100.00;100803.25;10333577;28;20199;-68
2021/12/07 16:36:47;;;;;;;12.83;5.43;;;;;;;-1.67;100.00;100808.16;10333629;28;20580;-66
2021/12/07 16:41:51;;;;;;;13.53;5.87;;;;;;;-1.61;100.00;100812.66;10333107;28;20771;-66
2021/12/07 16:46:55;;;;;;;13.97;6.23;;;;;;;-1.68;100.00;100801.31;10369074;28;20549;-67
2021/12/07 16:51:58;;;;;;;12.27;5.83;;;;;;;-1.60;100.00;100807.63;10373934;28;20874;-67
2021/12/07 16:57:06;;;;;;;14.97;6.87;;;;;;;-1.63;100.00;100809.16;10373299;28;20214;-67
2021/12/07 17:02:09;;;;;;;15.70;7.80;;;;;;;-1.77;100.00;100803.44;10372645;28;20332;-68
2021/12/07 17:07:13;;;;;;;15.43;7.20;;;;;;;-1.78;100.00;100808.47;10373288;28;20190;-67
2021/12/07 17:12:17;;;;;;;14.03;6.80;;;;;;;-1.72;100.00;100811.28;10373227;28;20551;-67
2021/12/07 17:17:21;;;;;;;16.30;7.97;;;;;;;-1.81;100.00;100821.06;10373336;28;20224;-68
2021/12/07 17:22:24;;;;;;;14.40;7.53;;;;;;;-1.89;100.00;100814.72;10372603;28;20252;-68
2021/12/07 17:27:30;;;;;;;15.83;8.13;;;;;;;-1.83;100.00;100815.03;10372940;28;20706;-68
2021/12/07 17:32:34;;;;;;;14.40;7.33;;;;;;;-1.69;100.00;100816.53;10372547;28;20312;-67
2021/12/07 17:37:38;;;;;;;16.53;8.00;;;;;;;-1.62;100.00;100813.44;10372290;28;20236;-68
2021/12/07 17:42:44;;;;;;;16.90;8.17;;;;;;;-1.69;100.00;100821.63;10371864;28;20753;-67
2021/12/07 17:47:47;;;;;;;15.30;7.50;;;;;;;-1.77;100.00;100817.81;10372275;28;20253;-68
2021/12/07 17:52:51;;;;;;;16.73;7.60;;;;;;;-1.65;100.00;100834.53;10372112;28;20249;-67
2021/12/07 17:57:56;;;;;;;15.97;7.10;;;;;;;-1.77;100.00;100831.44;10371877;28;20694;-67
2021/12/07 18:03:02;;;;;;;14.20;6.77;;;;;;;-1.76;100.00;100839.94;10371886;28;20705;-67
2021/12/07 18:08:06;;;;;;;15.83;8.07;;;;;;;-1.94;100.00;100839.94;10371988;28;20225;-67
2021/12/07 18:13:10;;;;;;;13.93;7.00;;;;;;;-1.90;100.00;100840.97;10376978;28;20222;-66
2021/12/07 18:18:15;;;;;;;12.30;6.27;;;;;;;-1.85;100.00;100839.50;10379639;28;20287;-68
2021/12/07 18:23:21;;;;;;;12.50;6.17;;;;;;;-1.86;100.00;100836.09;10379439;28;20234;-68
2021/12/07 18:28:27;;;;;;;13.83;6.70;;;;;;;-1.89;100.00;100837.59;10379469;28;20229;-67
2021/12/07 18:33:32;;;;;;;15.67;7.57;;;;;;;-1.92;100.00;100834.94;10379407;28;20222;-67
2021/12/07 18:38:40;;;;;;;15.40;6.70;;;;;;;-1.89;100.00;100838.50;10378327;28;20722;-68
2021/12/07 18:43:46;;;;;;;15.10;7.17;;;;;;;-1.79;100.00;100839.78;10367918;28;20249;-68
2021/12/07 18:48:51;;;;;;;13.83;6.67;;;;;;;-1.88;100.00;100845.31;10337671;28;20612;-66
2021/12/07 18:53:55;;;;;;;13.30;6.60;;;;;;;-1.87;100.00;100851.28;10337427;28;20227;-69
2021/12/07 18:59:00;;;;;;;16.30;6.50;;;;;;;-1.88;100.00;100852.94;10337247;28;20233;-66
2021/12/07 19:04:04;;;;;;;13.40;6.43;;;;;;;-1.78;100.00;100847.50;10337107;28;20231;-68
2021/12/07 19:09:09;;;;;;;17.30;7.80;;;;;;;-1.90;100.00;100848.59;10336680;28;20226;-66
2021/12/07 19:14:14;;;;;;;15.17;6.93;;;;;;;-1.86;100.00;100837.75;10336697;28;20241;-66
2021/12/07 19:19:17;;;;;;;16.30;7.23;;;;;;;-1.78;100.00;100837.31;10337303;28;20229;-68
2021/12/07 19:24:21;;;;;;;15.97;7.60;;;;;;;-1.97;100.00;100838.94;10336068;28;20325;-69
2021/12/07 20:00:24;;;;;;;14.57;8.40;;;;;;;-0.47;100.00;100835.50;10532765;27;20595;-68
2021/12/07 20:05:27;;;;;;;15.57;8.17;;;;;;;-1.65;100.00;100839.63;10532511;28;20229;-64
2021/12/07 20:10:32;;;;;;;16.93;7.67;;;;;;;-2.12;100.00;100845.84;10532206;28;20322;-66
2021/12/07 20:15:37;;;;;;;17.83;8.13;;;;;;;-2.12;100.00;100846.69;10531982;28;20243;-67
2021/12/07 20:20:40;;;;;;;15.77;8.03;;;;;;;-2.29;100.00;100844.13;10531861;28;20228;-66
2021/12/07 20:25:43;;;;;;;20.70;8.63;;;;;;;-2.29;100.00;100839.03;10531558;28;20225;-67
2021/12/07 20:30:51;;;;;;;17.40;8.40;;;;;;;-2.41;100.00;100845.31;10531429;28;20212;-67
2021/12/07 20:35:54;;;;;;;18.93;9.93;;;;;;;-2.51;100.00;100843.13;10531338;28;20651;-64
2021/12/07 20:40:59;;;;;;;19.47;8.77;;;;;;;-2.52;100.00;100848.97;10531199;28;20280;-64
2021/12/07 20:46:05;;;;;;;19.97;8.50;;;;;;;-2.57;100.00;100852.97;10531248;28;20737;-64
2021/12/07 20:51:12;;;;;;;17.83;8.87;;;;;;;-2.53;100.00;100849.78;10531152;28;20552;-66
2021/12/07 20:56:17;;;;;;;24.83;10.50;;;;;;;-2.53;100.00;100844.69;10530652;28;20245;-65
2021/12/07 21:01:39;;;;;;;22.40;8.93;;;;;;;-2.41;100.00;100855.47;10536090;28;20264;-66
2021/12/07 21:06:44;;;;;;;22.13;9.33;;;;;;;-2.58;100.00;100850.34;10572632;28;20260;-66
2021/12/07 21:11:48;;;;;;;16.40;9.23;;;;;;;-2.55;100.00;100853.91;10544159;28;20226;-66
2021/12/07 21:16:53;;;;;;;20.07;10.40;;;;;;;-2.59;100.00;100866.41;10543699;28;20653;-67
2021/12/07 21:21:56;;;;;;;21.10;8.73;;;;;;;-2.70;100.00;100863.31;10543407;28;20245;-68
2021/12/07 21:26:59;;;;;;;19.70;9.67;;;;;;;-2.75;100.00;100867.28;10543158;28;20548;-65
2021/12/07 21:32:05;;;;;;;20.33;9.30;;;;;;;-2.72;100.00;100869.97;10543076;28;20229;-66
2021/12/07 21:37:08;;;;;;;20.03;8.57;;;;;;;-2.87;100.00;100876.84;10542822;28;20227;-66
2021/12/07 21:42:13;;;;;;;22.63;11.00;;;;;;;-2.95;100.00;100878.09;10542354;28;20211;-67
2021/12/07 21:47:18;;;;;;;18.30;9.63;;;;;;;-2.89;100.00;100875.88;10502156;28;20230;-68
2021/12/07 21:52:22;;;;;;;22.67;9.37;;;;;;;-2.93;100.00;100855.31;10500607;28;20277;-66
2021/12/07 21:57:25;;;;;;;21.57;9.30;;;;;;;-3.03;100.00;100848.91;10500352;28;20558;-66
2021/12/07 22:02:30;;;;;;;19.97;8.57;;;;;;;-3.00;100.00;100854.13;10500554;28;20208;-67
2021/12/07 22:07:33;;;;;;;22.03;10.13;;;;;;;-3.04;100.00;100856.44;10500315;28;20321;-67
2021/12/07 22:12:37;;;;;;;20.90;10.23;;;;;;;-3.05;100.00;100857.22;10500219;28;20673;-66
2021/12/07 22:17:43;;;;;;;21.07;9.10;;;;;;;-3.15;100.00;100868.56;10499561;28;20242;-67
2021/12/07 22:22:47;;;;;;;19.43;9.07;;;;;;;-3.20;100.00;100874.19;10498268;28;20269;-66
2021/12/07 22:27:50;;;;;;;24.00;11.10;;;;;;;-3.14;100.00;100867.78;10499077;28;20224;-67
2021/12/07 22:32:55;;;;;;;21.70;10.70;;;;;;;-3.05;100.00;100855.56;10495611;28;20302;-65
2021/12/07 22:37:58;;;;;;;21.00;9.63;;;;;;;-3.16;100.00;100854.16;10502396;28;20232;-66
2021/12/07 22:43:01;;;;;;;22.80;9.90;;;;;;;-3.18;100.00;100853.19;10502485;28;20216;-66
2021/12/07 22:48:06;;;;;;;23.13;10.23;;;;;;;-3.17;100.00;100843.91;10502418;28;20255;-66
2021/12/07 22:53:10;;;;;;;26.20;12.07;;;;;;;-3.35;100.00;100848.91;10502313;28;20212;-66
2021/12/07 22:58:16;;;;;;;22.53;10.73;;;;;;;-3.29;100.00;100845.81;10501791;28;20322;-66
2021/12/07 23:03:22;;;;;;;25.83;11.83;;;;;;;-3.31;100.00;100840.66;10501964;28;20216;-64
2021/12/07 23:08:26;;;;;;;23.57;9.93;;;;;;;-3.32;100.00;100836.38;10501650;28;20695;-66
2021/12/07 23:13:29;;;;;;;24.97;12.37;;;;;;;-3.37;100.00;100837.81;10501716;28;20213;-63
2021/12/07 23:18:35;;;;;;;29.10;13.10;;;;;;;-3.44;100.00;100829.78;10501400;28;20557;-65
2021/12/07 23:23:39;;;;;;;28.87;12.77;;;;;;;-3.35;100.00;100835.34;10501298;28;20591;-66
2021/12/07 23:28:45;;;;;;;30.83;13.17;;;;;;;-3.37;100.00;100831.84;10501136;28;20553;-67
2021/12/07 23:33:51;;;;;;;28.30;10.90;;;;;;;-3.40;100.00;100829.16;10500806;28;20687;-65
2021/12/07 23:38:55;;;;;;;30.23;11.20;;;;;;;-3.33;100.00;100821.94;10501010;28;20238;-64
2021/12/07 23:43:59;;;;;;;23.10;10.80;;;;;;;-3.36;100.00;100811.63;10500853;28;20220;-65
2021/12/07 23:49:04;;;;;;;28.97;12.43;;;;;;;-3.55;100.00;100809.81;10500968;28;20284;-67
2021/12/07 23:54:07;;;;;;;25.23;10.30;;;;;;;-3.60;100.00;100807.81;10500718;28;20218;-64
2021/12/07 23:59:11;;;;;;;23.47;9.30;;;;;;;-3.49;100.00;100810.91;10500138;28;20319;-64
